This is the latest recevied weather packets stored in our database for station/object IZ3ZOD-13. If no packets are shown the sender has not sent any weather packets the latest 10 day(s).
| Time | Temp. | Humidity | Pressure | Rain* | Wind** | Luminosity | Snow |
|---|---|---|---|---|---|---|---|
| 1777693098 | 7.78° C | 74% | 1026 hPa | 0 mm | - | - | - |
| 1777692003 | 7.78° C | 74% | 1025.9 hPa | 0 mm | - | - | - |
| 1777690563 | 8.33° C | 73% | 1025.9 hPa | 0 mm | - | - | - |
| 1777690083 | 7.78° C | 74% | 1026 hPa | 0 mm | - | - | - |
| 1777688404 | 7.78° C | 73% | 1026.1 hPa | 0 mm | - | - | - |
| 1777687814 | 8.33° C | 72% | 1026 hPa | 0 mm | - | - | - |
| 1777687444 | 8.33° C | 72% | 1025.9 hPa | 0 mm | - | - | - |
| 1777683604 | 8.89° C | 68% | 1026.1 hPa | 0 mm | - | - | - |
| 1777681924 | 9.44° C | 67% | 1026.3 hPa | 0 mm | - | - | - |
| 1777680963 | 9.44° C | 68% | 1026.2 hPa | 0 mm | - | - | - |
| 1777680483 | 10° C | 62% | 1026.4 hPa | 0 mm | - | - | - |
| 1777678084 | 10.56° C | 60% | 1026.1 hPa | 0 mm | - | - | - |
| 1777676883 | 10° C | 63% | 1026.1 hPa | 0 mm | - | - | - |
| 1777675923 | 10° C | 62% | 1026.3 hPa | 0 mm | - | - | - |
| 1777671603 | 11.11° C | 60% | 1025.9 hPa | 0 mm | - | - | - |
| 1777671123 | 11.11° C | 61% | 1026 hPa | 0 mm | - | - | - |
| 1777670644 | 11.11° C | 60% | 1025.8 hPa | 0 mm | - | - | - |
| 1777670058 | 11.11° C | 58% | 1025.8 hPa | 0 mm | - | - | - |
| 1777669204 | 11.11° C | 59% | 1025.7 hPa | 0 mm | - | - | - |
| 1777667523 | 11.67° C | 55% | 1025.6 hPa | 0 mm | - | - | - |
| 1777667283 | 12.22° C | 53% | 1025.6 hPa | 0 mm | - | - | - |
| 1777663684 | 15° C | 42% | 1025.4 hPa | 0 mm | - | - | - |
| 1777663094 | 15.56° C | 41% | 1025.3 hPa | 0 mm | - | - | - |
| 1777662723 | 15° C | 42% | 1025.3 hPa | 0 mm | - | - | - |
| 1777660217 | 16.67° C | 38% | 1024.8 hPa | 0 mm | - | - | - |
* Rain latest hour (hover to see other rain measurements)
** Current wind speed in m/s (hover to see current wind gust speed)